sensor_id;sensor_type;location;lat;lon;timestamp;pressure;altitude;pressure_sealevel;temperature;humidity
63954;BME280;50128;52.094;5.232;2023-03-04T00:00:09;101285.0;;;-0.66;74.66
63954;BME280;50128;52.094;5.232;2023-03-04T00:01:46;101293.0;;;-0.78;74.95
63954;BME280;50128;52.094;5.232;2023-03-04T00:03:22;101282.0;;;-0.73;75.25
63954;BME280;50128;52.094;5.232;2023-03-04T00:04:58;101287.0;;;-0.69;75.16
63954;BME280;50128;52.094;5.232;2023-03-04T00:08:11;101295.0;;;-0.67;75.19
63954;BME280;50128;52.094;5.232;2023-03-04T00:09:47;101292.0;;;-0.57;74.41
63954;BME280;50128;52.094;5.232;2023-03-04T00:11:23;101292.0;;;-0.65;74.36
63954;BME280;50128;52.094;5.232;2023-03-04T00:14:35;101291.0;;;-0.68;74.38
63954;BME280;50128;52.094;5.232;2023-03-04T00:16:11;101286.0;;;-0.78;74.8
63954;BME280;50128;52.094;5.232;2023-03-04T00:17:48;101288.0;;;-0.67;74.44
63954;BME280;50128;52.094;5.232;2023-03-04T00:21:00;101285.0;;;-0.59;74.3
63954;BME280;50128;52.094;5.232;2023-03-04T00:22:36;101289.0;;;-0.61;74.59
63954;BME280;50128;52.094;5.232;2023-03-04T00:24:12;101285.0;;;-0.64;74.86
63954;BME280;50128;52.094;5.232;2023-03-04T00:25:48;101291.0;;;-0.59;74.77
63954;BME280;50128;52.094;5.232;2023-03-04T00:29:00;101291.0;;;-0.57;74.64
63954;BME280;50128;52.094;5.232;2023-03-04T00:30:37;101290.0;;;-0.53;74.73
63954;BME280;50128;52.094;5.232;2023-03-04T00:32:13;101293.0;;;-0.52;74.5
63954;BME280;50128;52.094;5.232;2023-03-04T00:35:25;101291.0;;;-0.54;74.63
63954;BME280;50128;52.094;5.232;2023-03-04T00:37:01;101289.0;;;-0.55;74.88
63954;BME280;50128;52.094;5.232;2023-03-04T00:38:37;101290.0;;;-0.76;76.08
63954;BME280;50128;52.094;5.232;2023-03-04T00:41:50;101289.0;;;-0.65;75.52
63954;BME280;50128;52.094;5.232;2023-03-04T00:43:26;101285.0;;;-0.71;76.34
63954;BME280;50128;52.094;5.232;2023-03-04T00:45:03;101286.0;;;-0.76;76.02
63954;BME280;50128;52.094;5.232;2023-03-04T00:48:15;101287.0;;;-0.83;76.31
63954;BME280;50128;52.094;5.232;2023-03-04T00:49:51;101287.0;;;-0.87;76.41
63954;BME280;50128;52.094;5.232;2023-03-04T00:51:28;101288.0;;;-0.7;76.11
63954;BME280;50128;52.094;5.232;2023-03-04T00:53:04;101285.0;;;-0.66;76.06
63954;BME280;50128;52.094;5.232;2023-03-04T00:56:17;101290.0;;;-0.63;75.87
63954;BME280;50128;52.094;5.232;2023-03-04T00:57:53;101295.0;;;-0.62;76.19
63954;BME280;50128;52.094;5.232;2023-03-04T00:59:29;101283.0;;;-0.64;76.05
63954;BME280;50128;52.094;5.232;2023-03-04T01:02:43;101295.0;;;-0.72;76.24
63954;BME280;50128;52.094;5.232;2023-03-04T01:04:19;101293.0;;;-0.72;75.83
63954;BME280;50128;52.094;5.232;2023-03-04T01:05:55;101292.0;;;-0.62;75.73
63954;BME280;50128;52.094;5.232;2023-03-04T01:09:07;101288.0;;;-0.67;75.86
63954;BME280;50128;52.094;5.232;2023-03-04T01:10:43;101287.0;;;-0.71;75.94
63954;BME280;50128;52.094;5.232;2023-03-04T01:12:19;101287.0;;;-0.68;75.91
63954;BME280;50128;52.094;5.232;2023-03-04T01:13:56;101293.0;;;-0.71;75.66
63954;BME280;50128;52.094;5.232;2023-03-04T01:17:08;101288.0;;;-0.68;75.66
63954;BME280;50128;52.094;5.232;2023-03-04T01:18:44;101292.0;;;-0.73;75.92
63954;BME280;50128;52.094;5.232;2023-03-04T01:20:20;101287.0;;;-0.68;75.36
63954;BME280;50128;52.094;5.232;2023-03-04T01:23:32;101289.0;;;-0.61;74.92
63954;BME280;50128;52.094;5.232;2023-03-04T01:25:09;101290.0;;;-0.71;75.06
63954;BME280;50128;52.094;5.232;2023-03-04T01:26:46;101291.0;;;-0.62;74.47
63954;BME280;50128;52.094;5.232;2023-03-04T01:29:59;101287.0;;;-0.63;74.31
63954;BME280;50128;52.094;5.232;2023-03-04T01:31:35;101280.0;;;-0.61;73.78
63954;BME280;50128;52.094;5.232;2023-03-04T01:33:11;101278.0;;;-0.75;73.98
63954;BME280;50128;52.094;5.232;2023-03-04T01:36:23;101271.0;;;-0.72;73.73
63954;BME280;50128;52.094;5.232;2023-03-04T01:38:00;101274.0;;;-0.79;73.91
63954;BME280;50128;52.094;5.232;2023-03-04T01:39:36;101269.0;;;-0.8;74.11
63954;BME280;50128;52.094;5.232;2023-03-04T01:41:13;101264.0;;;-0.77;73.94
63954;BME280;50128;52.094;5.232;2023-03-04T01:44:28;101266.0;;;-0.66;73.7
63954;BME280;50128;52.094;5.232;2023-03-04T01:47:43;101260.0;;;-0.7;72.72
63954;BME280;50128;52.094;5.232;2023-03-04T01:50:58;101256.0;;;-0.87;72.69
63954;BME280;50128;52.094;5.232;2023-03-04T01:52:35;101251.0;;;-0.83;72.95
63954;BME280;50128;52.094;5.232;2023-03-04T01:54:20;101255.0;;;-0.74;72.62
63954;BME280;50128;52.094;5.232;2023-03-04T01:56:00;101252.0;;;-0.73;72.66
63954;BME280;50128;52.094;5.232;2023-03-04T01:59:16;101251.0;;;-0.71;72.69
63954;BME280;50128;52.094;5.232;2023-03-04T02:00:54;101249.0;;;-0.7;73.02
63954;BME280;50128;52.094;5.232;2023-03-04T02:02:31;101241.0;;;-0.79;73.24
63954;BME280;50128;52.094;5.232;2023-03-04T02:04:07;101238.0;;;-0.7;72.91
63954;BME280;50128;52.094;5.232;2023-03-04T02:07:24;101245.0;;;-0.72;72.87
63954;BME280;50128;52.094;5.232;2023-03-04T02:09:00;101239.0;;;-0.71;73.12
63954;BME280;50128;52.094;5.232;2023-03-04T02:10:37;101239.0;;;-0.75;72.86
63954;BME280;50128;52.094;5.232;2023-03-04T02:13:50;101235.0;;;-0.64;72.61
63954;BME280;50128;52.094;5.232;2023-03-04T02:15:27;101232.0;;;-0.81;73.06
63954;BME280;50128;52.094;5.232;2023-03-04T02:17:08;101232.0;;;-0.86;73.47
63954;BME280;50128;52.094;5.232;2023-03-04T02:18:45;101223.0;;;-0.96;73.06
63954;BME280;50128;52.094;5.232;2023-03-04T02:22:13;101220.0;;;-0.97;72.99
63954;BME280;50128;52.094;5.232;2023-03-04T02:23:56;101216.0;;;-0.99;73.08
63954;BME280;50128;52.094;5.232;2023-03-04T02:25:41;101217.0;;;-0.94;73.05
63954;BME280;50128;52.094;5.232;2023-03-04T02:27:20;101212.0;;;-0.9;73.19
63954;BME280;50128;52.094;5.232;2023-03-04T02:30:34;101215.0;;;-0.77;72.69
63954;BME280;50128;52.094;5.232;2023-03-04T02:32:11;101210.0;;;-0.84;72.52
63954;BME280;50128;52.094;5.232;2023-03-04T02:33:49;101211.0;;;-0.79;72.41
63954;BME280;50128;52.094;5.232;2023-03-04T02:37:02;101210.0;;;-0.86;72.98
63954;BME280;50128;52.094;5.232;2023-03-04T02:38:39;101213.0;;;-0.8;72.61
63954;BME280;50128;52.094;5.232;2023-03-04T02:40:20;101208.0;;;-0.93;73.22
63954;BME280;50128;52.094;5.232;2023-03-04T02:42:01;101208.0;;;-0.82;72.8
63954;BME280;50128;52.094;5.232;2023-03-04T02:45:33;101206.0;;;-0.85;72.61
63954;BME280;50128;52.094;5.232;2023-03-04T02:47:12;101199.0;;;-0.85;72.69
63954;BME280;50128;52.094;5.232;2023-03-04T02:48:49;101196.0;;;-0.86;72.33
63954;BME280;50128;52.094;5.232;2023-03-04T02:50:27;101191.0;;;-1.05;72.69
63954;BME280;50128;52.094;5.232;2023-03-04T02:53:47;101189.0;;;-0.97;72.94
63954;BME280;50128;52.094;5.232;2023-03-04T02:55:23;101191.0;;;-1.0;72.83
63954;BME280;50128;52.094;5.232;2023-03-04T02:57:01;101188.0;;;-0.97;73.0
63954;BME280;50128;52.094;5.232;2023-03-04T02:58:39;101193.0;;;-0.84;72.86
63954;BME280;50128;52.094;5.232;2023-03-04T03:01:51;101194.0;;;-0.82;72.89
63954;BME280;50128;52.094;5.232;2023-03-04T03:03:28;101192.0;;;-0.84;72.83
63954;BME280;50128;52.094;5.232;2023-03-04T03:05:05;101192.0;;;-0.88;73.5
63954;BME280;50128;52.094;5.232;2023-03-04T03:08:19;101196.0;;;-0.84;73.03
63954;BME280;50128;52.094;5.232;2023-03-04T03:09:55;101192.0;;;-0.89;73.38
63954;BME280;50128;52.094;5.232;2023-03-04T03:11:31;101191.0;;;-0.79;73.27
63954;BME280;50128;52.094;5.232;2023-03-04T03:14:43;101188.0;;;-0.85;73.55
63954;BME280;50128;52.094;5.232;2023-03-04T03:16:19;101185.0;;;-0.87;73.27
63954;BME280;50128;52.094;5.232;2023-03-04T03:17:56;101183.0;;;-0.94;73.08
63954;BME280;50128;52.094;5.232;2023-03-04T03:19:32;101181.0;;;-0.79;72.95
63954;BME280;50128;52.094;5.232;2023-03-04T03:22:45;101182.0;;;-0.78;72.74
63954;BME280;50128;52.094;5.232;2023-03-04T03:24:22;101180.0;;;-0.79;72.75
63954;BME280;50128;52.094;5.232;2023-03-04T03:25:58;101183.0;;;-0.93;72.73
63954;BME280;50128;52.094;5.232;2023-03-04T03:29:10;101180.0;;;-0.79;72.53
63954;BME280;50128;52.094;5.232;2023-03-04T03:30:46;101180.0;;;-0.97;73.64
63954;BME280;50128;52.094;5.232;2023-03-04T03:32:23;101176.0;;;-0.93;73.42
63954;BME280;50128;52.094;5.232;2023-03-04T03:35:35;101170.0;;;-1.06;73.84
63954;BME280;50128;52.094;5.232;2023-03-04T03:37:11;101174.0;;;-1.08;74.05
63954;BME280;50128;52.094;5.232;2023-03-04T03:38:48;101171.0;;;-0.95;73.89
63954;BME280;50128;52.094;5.232;2023-03-04T03:40:24;101172.0;;;-0.97;73.7
63954;BME280;50128;52.094;5.232;2023-03-04T03:43:37;101173.0;;;-0.9;73.8
63954;BME280;50128;52.094;5.232;2023-03-04T03:45:13;101173.0;;;-0.94;74.05
63954;BME280;50128;52.094;5.232;2023-03-04T03:46:49;101170.0;;;-0.97;73.86
63954;BME280;50128;52.094;5.232;2023-03-04T03:50:02;101173.0;;;-0.92;74.22
63954;BME280;50128;52.094;5.232;2023-03-04T03:51:38;101175.0;;;-0.89;74.08
63954;BME280;50128;52.094;5.232;2023-03-04T03:53:15;101174.0;;;-0.75;73.7
63954;BME280;50128;52.094;5.232;2023-03-04T03:56:27;101177.0;;;-0.86;74.47
63954;BME280;50128;52.094;5.232;2023-03-04T03:58:03;101177.0;;;-0.79;74.31
63954;BME280;50128;52.094;5.232;2023-03-04T03:59:39;101178.0;;;-0.85;75.16
63954;BME280;50128;52.094;5.232;2023-03-04T04:01:15;101180.0;;;-0.84;75.3
63954;BME280;50128;52.094;5.232;2023-03-04T04:04:30;101183.0;;;-0.85;75.12
63954;BME280;50128;52.094;5.232;2023-03-04T04:06:06;101178.0;;;-1.03;76.23
63954;BME280;50128;52.094;5.232;2023-03-04T04:07:42;101175.0;;;-1.03;75.94
63954;BME280;50128;52.094;5.232;2023-03-04T04:10:54;101180.0;;;-0.93;75.66
63954;BME280;50128;52.094;5.232;2023-03-04T04:12:31;101186.0;;;-0.9;75.5
63954;BME280;50128;52.094;5.232;2023-03-04T04:14:08;101180.0;;;-0.8;75.16
63954;BME280;50128;52.094;5.232;2023-03-04T04:17:22;101185.0;;;-0.86;75.2
63954;BME280;50128;52.094;5.232;2023-03-04T04:18:58;101180.0;;;-0.85;75.14
63954;BME280;50128;52.094;5.232;2023-03-04T04:20:34;101178.0;;;-1.0;75.86
63954;BME280;50128;52.094;5.232;2023-03-04T04:22:14;101182.0;;;-1.03;75.63
63954;BME280;50128;52.094;5.232;2023-03-04T04:25:27;101180.0;;;-0.97;75.8
63954;BME280;50128;52.094;5.232;2023-03-04T04:27:03;101183.0;;;-0.95;76.05
63954;BME280;50128;52.094;5.232;2023-03-04T04:28:39;101180.0;;;-1.02;76.17
63954;BME280;50128;52.094;5.232;2023-03-04T04:31:52;101180.0;;;-0.97;75.97
63954;BME280;50128;52.094;5.232;2023-03-04T04:33:28;101182.0;;;-1.05;76.98
63954;BME280;50128;52.094;5.232;2023-03-04T04:35:06;101182.0;;;-0.93;76.61
63954;BME280;50128;52.094;5.232;2023-03-04T04:38:19;101182.0;;;-1.0;76.91
63954;BME280;50128;52.094;5.232;2023-03-04T04:39:55;101184.0;;;-0.94;77.09
63954;BME280;50128;52.094;5.232;2023-03-04T04:41:36;101181.0;;;-0.85;77.24
63954;BME280;50128;52.094;5.232;2023-03-04T04:43:12;101187.0;;;-0.87;77.8
63954;BME280;50128;52.094;5.232;2023-03-04T04:46:24;101190.0;;;-0.93;78.34
63954;BME280;50128;52.094;5.232;2023-03-04T04:48:02;101188.0;;;-0.94;78.41
63954;BME280;50128;52.094;5.232;2023-03-04T04:49:38;101189.0;;;-0.81;78.08
63954;BME280;50128;52.094;5.232;2023-03-04T04:52:50;101188.0;;;-0.89;78.77
63954;BME280;50128;52.094;5.232;2023-03-04T04:54:27;101189.0;;;-1.07;79.8
63954;BME280;50128;52.094;5.232;2023-03-04T04:56:13;101187.0;;;-0.98;79.7
63954;BME280;50128;52.094;5.232;2023-03-04T04:57:49;101183.0;;;-0.93;79.67
63954;BME280;50128;52.094;5.232;2023-03-04T05:01:02;101187.0;;;-1.08;80.7
63954;BME280;50128;52.094;5.232;2023-03-04T05:02:39;101183.0;;;-1.07;80.94
63954;BME280;50128;52.094;5.232;2023-03-04T05:04:15;101181.0;;;-1.13;81.59
63954;BME280;50128;52.094;5.232;2023-03-04T05:07:27;101181.0;;;-1.08;81.28
63954;BME280;50128;52.094;5.232;2023-03-04T05:09:03;101183.0;;;-1.15;81.8
63954;BME280;50128;52.094;5.232;2023-03-04T05:10:39;101180.0;;;-1.15;81.63
63954;BME280;50128;52.094;5.232;2023-03-04T05:13:52;101180.0;;;-1.24;82.7
63954;BME280;50128;52.094;5.232;2023-03-04T05:15:29;101180.0;;;-1.13;82.15
63954;BME280;50128;52.094;5.232;2023-03-04T05:17:05;101178.0;;;-1.21;82.54
63954;BME280;50128;52.094;5.232;2023-03-04T05:18:41;101180.0;;;-1.18;82.44
63954;BME280;50128;52.094;5.232;2023-03-04T05:21:54;101180.0;;;-1.19;82.55
63954;BME280;50128;52.094;5.232;2023-03-04T05:23:32;101180.0;;;-1.34;83.43
63954;BME280;50128;52.094;5.232;2023-03-04T05:25:09;101181.0;;;-1.19;83.12
63954;BME280;50128;52.094;5.232;2023-03-04T05:28:21;101180.0;;;-1.15;82.75
63954;BME280;50128;52.094;5.232;2023-03-04T05:29:58;101181.0;;;-1.18;83.09
63954;BME280;50128;52.094;5.232;2023-03-04T05:31:35;101180.0;;;-1.25;83.0
63954;BME280;50128;52.094;5.232;2023-03-04T05:34:50;101184.0;;;-1.2;83.12
63954;BME280;50128;52.094;5.232;2023-03-04T05:36:26;101189.0;;;-1.27;83.69
63954;BME280;50128;52.094;5.232;2023-03-04T05:38:02;101184.0;;;-1.21;83.47
63954;BME280;50128;52.094;5.232;2023-03-04T05:39:39;101188.0;;;-1.2;83.93
63954;BME280;50128;52.094;5.232;2023-03-04T05:42:51;101185.0;;;-1.28;84.61
63954;BME280;50128;52.094;5.232;2023-03-04T05:44:28;101186.0;;;-1.24;84.09
63954;BME280;50128;52.094;5.232;2023-03-04T05:46:04;101184.0;;;-1.3;84.27
63954;BME280;50128;52.094;5.232;2023-03-04T05:49:16;101189.0;;;-1.14;83.57
63954;BME280;50128;52.094;5.232;2023-03-04T05:50:53;101187.0;;;-1.13;83.44
63954;BME280;50128;52.094;5.232;2023-03-04T05:52:29;101186.0;;;-1.15;83.62
63954;BME280;50128;52.094;5.232;2023-03-04T05:55:44;101185.0;;;-1.21;83.87
63954;BME280;50128;52.094;5.232;2023-03-04T05:57:21;101183.0;;;-1.19;83.68
63954;BME280;50128;52.094;5.232;2023-03-04T05:58:57;101180.0;;;-1.21;84.15
63954;BME280;50128;52.094;5.232;2023-03-04T06:00:34;101183.0;;;-1.23;84.16
63954;BME280;50128;52.094;5.232;2023-03-04T06:03:46;101185.0;;;-1.09;83.65
63954;BME280;50128;52.094;5.232;2023-03-04T06:05:23;101180.0;;;-1.12;83.58
63954;BME280;50128;52.094;5.232;2023-03-04T06:06:59;101184.0;;;-1.15;83.83
63954;BME280;50128;52.094;5.232;2023-03-04T06:10:13;101182.0;;;-1.11;83.98
63954;BME280;50128;52.094;5.232;2023-03-04T06:11:50;101184.0;;;-1.17;84.58
63954;BME280;50128;52.094;5.232;2023-03-04T06:13:26;101185.0;;;-1.15;84.29
63954;BME280;50128;52.094;5.232;2023-03-04T06:16:40;101178.0;;;-1.28;84.8
63954;BME280;50128;52.094;5.232;2023-03-04T06:18:16;101176.0;;;-1.36;85.41
63954;BME280;50128;52.094;5.232;2023-03-04T06:19:52;101181.0;;;-1.31;85.26
63954;BME280;50128;52.094;5.232;2023-03-04T06:21:28;101175.0;;;-1.26;84.84
63954;BME280;50128;52.094;5.232;2023-03-04T06:24:42;101175.0;;;-1.27;84.94
63954;BME280;50128;52.094;5.232;2023-03-04T06:26:18;101183.0;;;-1.28;85.05
63954;BME280;50128;52.094;5.232;2023-03-04T06:27:54;101177.0;;;-1.2;84.48
63954;BME280;50128;52.094;5.232;2023-03-04T06:31:07;101183.0;;;-1.1;84.24
63954;BME280;50128;52.094;5.232;2023-03-04T06:32:43;101183.0;;;-1.21;84.74
63954;BME280;50128;52.094;5.232;2023-03-04T06:34:20;101177.0;;;-1.32;85.71
63954;BME280;50128;52.094;5.232;2023-03-04T06:37:32;101181.0;;;-1.28;85.3
63954;BME280;50128;52.094;5.232;2023-03-04T06:39:09;101181.0;;;-1.18;85.11
63954;BME280;50128;52.094;5.232;2023-03-04T06:40:45;101182.0;;;-1.31;86.0
63954;BME280;50128;52.094;5.232;2023-03-04T06:42:21;101187.0;;;-1.35;86.44
63954;BME280;50128;52.094;5.232;2023-03-04T06:45:33;101188.0;;;-1.37;86.88
63954;BME280;50128;52.094;5.232;2023-03-04T06:47:09;101186.0;;;-1.34;87.18
63954;BME280;50128;52.094;5.232;2023-03-04T06:48:45;101185.0;;;-1.34;87.34
63954;BME280;50128;52.094;5.232;2023-03-04T06:51:59;101187.0;;;-1.33;87.48
63954;BME280;50128;52.094;5.232;2023-03-04T06:53:35;101185.0;;;-1.25;87.46
63954;BME280;50128;52.094;5.232;2023-03-04T06:55:12;101185.0;;;-1.31;88.28
63954;BME280;50128;52.094;5.232;2023-03-04T06:58:24;101186.0;;;-1.31;88.56
63954;BME280;50128;52.094;5.232;2023-03-04T07:00:00;101188.0;;;-1.23;88.1
63954;BME280;50128;52.094;5.232;2023-03-04T07:01:36;101193.0;;;-1.15;87.57
63954;BME280;50128;52.094;5.232;2023-03-04T07:04:49;101192.0;;;-1.21;87.88
63954;BME280;50128;52.094;5.232;2023-03-04T07:06:27;101194.0;;;-1.15;87.79
63954;BME280;50128;52.094;5.232;2023-03-04T07:08:03;101193.0;;;-1.21;88.19
63954;BME280;50128;52.094;5.232;2023-03-04T07:09:39;101196.0;;;-1.18;87.94
63954;BME280;50128;52.094;5.232;2023-03-04T07:12:55;101203.0;;;-1.15;87.85
63954;BME280;50128;52.094;5.232;2023-03-04T07:14:31;101202.0;;;-1.11;88.04
63954;BME280;50128;52.094;5.232;2023-03-04T07:16:09;101203.0;;;-1.21;89.28
63954;BME280;50128;52.094;5.232;2023-03-04T07:19:24;101205.0;;;-1.07;88.62
63954;BME280;50128;52.094;5.232;2023-03-04T07:21:00;101203.0;;;-1.05;88.76
63954;BME280;50128;52.094;5.232;2023-03-04T07:22:36;101206.0;;;-1.08;88.93
63954;BME280;50128;52.094;5.232;2023-03-04T07:24:12;101203.0;;;-1.11;88.71
63954;BME280;50128;52.094;5.232;2023-03-04T07:27:26;101200.0;;;-1.2;89.04
63954;BME280;50128;52.094;5.232;2023-03-04T07:29:03;101194.0;;;-1.15;89.47
63954;BME280;50128;52.094;5.232;2023-03-04T07:30:39;101201.0;;;-1.04;88.91
63954;BME280;50128;52.094;5.232;2023-03-04T07:33:55;101201.0;;;-1.0;89.15
63954;BME280;50128;52.094;5.232;2023-03-04T07:35:32;101207.0;;;-0.88;88.64
63954;BME280;50128;52.094;5.232;2023-03-04T07:37:08;101205.0;;;-0.92;88.7
63954;BME280;50128;52.094;5.232;2023-03-04T07:40:22;101207.0;;;-0.83;88.83
63954;BME280;50128;52.094;5.232;2023-03-04T07:41:58;101208.0;;;-0.85;87.89
63954;BME280;50128;52.094;5.232;2023-03-04T07:43:35;101208.0;;;-0.78;87.77
63954;BME280;50128;52.094;5.232;2023-03-04T07:45:11;101205.0;;;-0.76;87.2
63954;BME280;50128;52.094;5.232;2023-03-04T07:48:23;101210.0;;;-0.92;87.71
63954;BME280;50128;52.094;5.232;2023-03-04T07:49:59;101211.0;;;-0.88;87.75
63954;BME280;50128;52.094;5.232;2023-03-04T07:51:36;101212.0;;;-0.86;87.77
63954;BME280;50128;52.094;5.232;2023-03-04T07:54:49;101210.0;;;-0.77;87.22
63954;BME280;50128;52.094;5.232;2023-03-04T07:56:26;101213.0;;;-0.82;87.8
63954;BME280;50128;52.094;5.232;2023-03-04T07:58:04;101212.0;;;-0.89;87.89
63954;BME280;50128;52.094;5.232;2023-03-04T08:01:18;101215.0;;;-0.86;88.28
63954;BME280;50128;52.094;5.232;2023-03-04T08:02:56;101214.0;;;-0.75;87.91
63954;BME280;50128;52.094;5.232;2023-03-04T08:04:32;101212.0;;;-0.57;87.23
63954;BME280;50128;52.094;5.232;2023-03-04T08:06:09;101219.0;;;-0.52;87.24
63954;BME280;50128;52.094;5.232;2023-03-04T08:09:23;101218.0;;;-0.5;87.02
63954;BME280;50128;52.094;5.232;2023-03-04T08:10:59;101219.0;;;-0.41;86.91
63954;BME280;50128;52.094;5.232;2023-03-04T08:12:39;101225.0;;;-0.34;86.2
63954;BME280;50128;52.094;5.232;2023-03-04T08:15:54;101224.0;;;-0.57;87.09
63954;BME280;50128;52.094;5.232;2023-03-04T08:17:31;101228.0;;;-0.53;87.4
63954;BME280;50128;52.094;5.232;2023-03-04T08:19:07;101231.0;;;-0.45;86.61
63954;BME280;50128;52.094;5.232;2023-03-04T08:20:45;101234.0;;;-0.47;86.92
63954;BME280;50128;52.094;5.232;2023-03-04T08:23:58;101232.0;;;-0.39;86.79
63954;BME280;50128;52.094;5.232;2023-03-04T08:25:38;101232.0;;;-0.38;86.63
63954;BME280;50128;52.094;5.232;2023-03-04T08:27:14;101231.0;;;-0.3;86.23
63954;BME280;50128;52.094;5.232;2023-03-04T08:30:27;101233.0;;;-0.26;86.23
63954;BME280;50128;52.094;5.232;2023-03-04T08:32:03;101232.0;;;-0.14;85.71
63954;BME280;50128;52.094;5.232;2023-03-04T08:33:39;101232.0;;;-0.13;85.71
63954;BME280;50128;52.094;5.232;2023-03-04T08:36:52;101226.0;;;0.0;85.03
63954;BME280;50128;52.094;5.232;2023-03-04T08:38:29;101228.0;;;-0.11;85.28
63954;BME280;50128;52.094;5.232;2023-03-04T08:40:06;101233.0;;;0.02;85.15
63954;BME280;50128;52.094;5.232;2023-03-04T08:41:44;101232.0;;;0.08;85.27
63954;BME280;50128;52.094;5.232;2023-03-04T08:44:59;101230.0;;;0.23;84.36
63954;BME280;50128;52.094;5.232;2023-03-04T08:46:36;101231.0;;;0.4;83.54
63954;BME280;50128;52.094;5.232;2023-03-04T08:48:13;101231.0;;;0.36;83.97
63954;BME280;50128;52.094;5.232;2023-03-04T08:51:28;101227.0;;;0.35;83.5
63954;BME280;50128;52.094;5.232;2023-03-04T08:53:04;101227.0;;;0.37;83.01
63954;BME280;50128;52.094;5.232;2023-03-04T08:54:40;101223.0;;;0.33;83.04
63954;BME280;50128;52.094;5.232;2023-03-04T08:56:16;101218.0;;;0.25;83.17
63954;BME280;50128;52.094;5.232;2023-03-04T08:59:30;101222.0;;;0.29;82.82
63954;BME280;50128;52.094;5.232;2023-03-04T09:01:08;101214.0;;;0.34;83.36
63954;BME280;50128;52.094;5.232;2023-03-04T09:02:44;101217.0;;;0.23;84.22
63954;BME280;50128;52.094;5.232;2023-03-04T09:05:56;101221.0;;;0.29;84.16
63954;BME280;50128;52.094;5.232;2023-03-04T09:07:32;101221.0;;;0.33;83.22
63954;BME280;50128;52.094;5.232;2023-03-04T09:09:09;101223.0;;;0.43;83.35
63954;BME280;50128;52.094;5.232;2023-03-04T09:12:22;101219.0;;;0.17;84.85
63954;BME280;50128;52.094;5.232;2023-03-04T09:13:58;101218.0;;;0.32;86.41
63954;BME280;50128;52.094;5.232;2023-03-04T09:15:34;101221.0;;;0.13;88.43
63954;BME280;50128;52.094;5.232;2023-03-04T09:17:10;101219.0;;;0.17;89.39
63954;BME280;50128;52.094;5.232;2023-03-04T09:20:23;101216.0;;;0.29;90.37
63954;BME280;50128;52.094;5.232;2023-03-04T09:22:00;101216.0;;;0.27;91.13
63954;BME280;50128;52.094;5.232;2023-03-04T09:23:36;101221.0;;;0.08;92.74
63954;BME280;50128;52.094;5.232;2023-03-04T09:26:49;101215.0;;;0.27;92.86
63954;BME280;50128;52.094;5.232;2023-03-04T09:28:26;101214.0;;;0.27;94.92
63954;BME280;50128;52.094;5.232;2023-03-04T09:30:03;101217.0;;;0.16;95.57
63954;BME280;50128;52.094;5.232;2023-03-04T09:33:16;101217.0;;;0.24;94.69
63954;BME280;50128;52.094;5.232;2023-03-04T09:34:53;101220.0;;;0.26;95.46
63954;BME280;50128;52.094;5.232;2023-03-04T09:36:29;101217.0;;;0.23;97.25
63954;BME280;50128;52.094;5.232;2023-03-04T09:38:05;101221.0;;;0.29;96.42
63954;BME280;50128;52.094;5.232;2023-03-04T09:41:21;101216.0;;;0.29;96.22
63954;BME280;50128;52.094;5.232;2023-03-04T09:43:01;101214.0;;;0.4;96.81
63954;BME280;50128;52.094;5.232;2023-03-04T09:44:40;101213.0;;;0.44;96.39
63954;BME280;50128;52.094;5.232;2023-03-04T09:48:03;101215.0;;;0.43;97.71
63954;BME280;50128;52.094;5.232;2023-03-04T09:49:44;101216.0;;;0.59;98.14
63954;BME280;50128;52.094;5.232;2023-03-04T09:51:42;101211.0;;;0.58;97.66
63954;BME280;50128;52.094;5.232;2023-03-04T09:53:22;101205.0;;;0.57;95.99
63954;BME280;50128;52.094;5.232;2023-03-04T09:55:14;101201.0;;;0.65;95.92
63954;BME280;50128;52.094;5.232;2023-03-04T09:56:59;101201.0;;;0.73;95.91
63954;BME280;50128;52.094;5.232;2023-03-04T10:00:32;101200.0;;;0.72;96.84
63954;BME280;50128;52.094;5.232;2023-03-04T10:02:15;101200.0;;;0.78;95.18
63954;BME280;50128;52.094;5.232;2023-03-04T10:03:59;101203.0;;;0.8;95.31
63954;BME280;50128;52.094;5.232;2023-03-04T10:05:41;101198.0;;;0.75;94.62
63954;BME280;50128;52.094;5.232;2023-03-04T10:07:34;101201.0;;;0.86;94.83
63954;BME280;50128;52.094;5.232;2023-03-04T10:10:53;101198.0;;;0.92;95.16
63954;BME280;50128;52.094;5.232;2023-03-04T10:12:33;101199.0;;;0.96;94.93
63954;BME280;50128;52.094;5.232;2023-03-04T10:14:28;101205.0;;;0.97;95.24
63954;BME280;50128;52.094;5.232;2023-03-04T10:16:12;101198.0;;;1.02;92.89
63954;BME280;50128;52.094;5.232;2023-03-04T10:17:56;101198.0;;;1.14;92.99
63954;BME280;50128;52.094;5.232;2023-03-04T10:21:29;101184.0;;;1.16;91.69
63954;BME280;50128;52.094;5.232;2023-03-04T10:23:11;101187.0;;;1.28;91.37
63954;BME280;50128;52.094;5.232;2023-03-04T10:24:55;101181.0;;;1.44;87.68
63954;BME280;50128;52.094;5.232;2023-03-04T10:26:32;101177.0;;;1.45;86.74
63954;BME280;50128;52.094;5.232;2023-03-04T10:29:51;101173.0;;;1.6;85.33
63954;BME280;50128;52.094;5.232;2023-03-04T10:31:31;101172.0;;;1.83;86.76
63954;BME280;50128;52.094;5.232;2023-03-04T10:33:12;101171.0;;;1.86;84.64
63954;BME280;50128;52.094;5.232;2023-03-04T10:34:48;101175.0;;;1.65;81.94
63954;BME280;50128;52.094;5.232;2023-03-04T10:38:21;101180.0;;;1.74;81.84
63954;BME280;50128;52.094;5.232;2023-03-04T10:40:00;101176.0;;;1.7;82.15
63954;BME280;50128;52.094;5.232;2023-03-04T10:41:41;101184.0;;;1.66;85.81
63954;BME280;50128;52.094;5.232;2023-03-04T10:43:19;101183.0;;;1.51;88.05
63954;BME280;50128;52.094;5.232;2023-03-04T10:46:37;101182.0;;;1.41;89.33
63954;BME280;50128;52.094;5.232;2023-03-04T10:48:18;101187.0;;;1.3;91.93
63954;BME280;50128;52.094;5.232;2023-03-04T10:49:58;101186.0;;;1.3;90.62
63954;BME280;50128;52.094;5.232;2023-03-04T10:51:41;101188.0;;;1.31;93.56
63954;BME280;50128;52.094;5.232;2023-03-04T10:55:13;101189.0;;;1.25;93.08
63954;BME280;50128;52.094;5.232;2023-03-04T11:00:23;101187.0;;;1.06;94.33
63954;BME280;50128;52.094;5.232;2023-03-04T11:02:16;101189.0;;;0.93;96.05
63954;BME280;50128;52.094;5.232;2023-03-04T11:03:55;101188.0;;;0.97;96.97
63954;BME280;50128;52.094;5.232;2023-03-04T11:07:08;101177.0;;;0.99;97.28
63954;BME280;50128;52.094;5.232;2023-03-04T11:08:52;101173.0;;;0.94;99.36
63954;BME280;50128;52.094;5.232;2023-03-04T11:10:38;101164.0;;;0.91;100.0
63954;BME280;50128;52.094;5.232;2023-03-04T11:12:16;101163.0;;;1.14;100.0